Time;durP1;ratioP1;P1;durP2;ratioP2;P2;SDS_P1;SDS_P2;PMS_P1;PMS_P2;Temp;Humidity;BMP_temperature;BMP_pressure;BME280_temperature;BME280_humidity;BME280_pressure;Samples;Min_cycle;Max_cycle;Signal;HPM_P1;HPM_P2
2020/12/22 00:00:47;;;;;;;3.17;2.57;;;;;;;8.37;100.00;153510.22;5058350;28;20438;-93
2020/12/22 00:03:23;;;;;;;3.67;3.20;;;;;;;8.37;100.00;153510.22;5058209;28;20445;-94
2020/12/22 00:05:59;;;;;;;3.70;3.00;;;;;;;8.39;100.00;153515.38;5057774;28;20536;-94
2020/12/22 00:08:34;;;;;;;3.27;2.97;;;;;;;8.36;100.00;153507.69;5057820;28;20934;-94
2020/12/22 00:11:10;;;;;;;3.40;3.10;;;;;;;8.42;100.00;153523.16;5076111;28;20442;-94
2020/12/22 00:13:45;;;;;;;3.53;2.70;;;;;;;8.43;100.00;153525.75;5058042;28;20832;-94
2020/12/22 00:16:20;;;;;;;3.80;3.20;;;;;;;8.46;100.00;153533.53;5042721;28;20438;-94
2020/12/22 00:18:57;;;;;;;3.50;3.13;;;;;;;8.44;100.00;153528.34;5074600;28;20504;-94
2020/12/22 00:21:32;;;;;;;4.37;2.70;;;;;;;8.45;100.00;153530.91;5074565;28;20885;-94
2020/12/22 00:24:08;;;;;;;3.10;2.80;;;;;;;8.53;100.00;153551.59;5057705;28;20438;-94
2020/12/22 00:26:49;;;;;;;3.10;2.53;;;;;;;8.52;100.00;153549.00;5042515;28;20447;-94
2020/12/22 00:29:24;;;;;;;2.57;2.30;;;;;;;8.54;100.00;153552.91;5058311;28;20425;-94
2020/12/22 00:32:01;;;;;;;2.70;2.40;;;;;;;8.52;100.00;153549.00;5057475;28;20531;-94
2020/12/22 00:34:37;;;;;;;4.53;2.90;;;;;;;8.56;100.00;153559.38;5058647;28;20489;-94
2020/12/22 00:37:12;;;;;;;3.37;2.70;;;;;;;8.55;100.00;153555.50;5075203;28;20421;-94
2020/12/22 00:39:48;;;;;;;2.80;2.37;;;;;;;8.58;100.00;153564.53;5057946;28;20449;-94
2020/12/22 00:42:23;;;;;;;2.83;2.20;;;;;;;8.60;100.00;153567.13;5057263;28;20433;-94
2020/12/22 00:44:59;;;;;;;2.77;2.57;;;;;;;8.61;100.00;153569.69;5042157;28;20426;-95
2020/12/22 00:47:34;;;;;;;3.50;2.33;;;;;;;8.61;100.00;153570.97;5041685;28;20441;-94
2020/12/22 00:50:10;;;;;;;2.50;2.10;;;;;;;8.66;100.00;153582.66;5056752;28;20447;-94
2020/12/22 00:52:46;;;;;;;3.00;1.93;;;;;;;8.61;100.00;153570.97;5075156;28;20411;-94
2020/12/22 00:55:26;;;;;;;2.30;2.00;;;;;;;8.68;100.00;153589.13;5041700;28;20579;-95
2020/12/22 00:58:05;;;;;;;2.23;1.73;;;;;;;8.74;100.00;153603.28;5042133;28;20434;-94
2020/12/22 01:00:43;;;;;;;2.13;1.93;;;;;;;8.75;100.00;153605.91;5058641;28;20444;-94
2020/12/22 01:03:18;;;;;;;2.47;1.83;;;;;;;8.79;100.00;153617.50;5058416;28;20504;-95
2020/12/22 01:05:54;;;;;;;2.03;1.80;;;;;;;8.79;100.00;153616.25;5042120;28;20463;-94
2020/12/22 01:08:30;;;;;;;2.40;1.90;;;;;;;8.77;100.00;153611.06;5057283;28;20924;-93
2020/12/22 01:11:05;;;;;;;2.80;1.33;;;;;;;8.78;100.00;153614.97;5057143;28;20445;-94
2020/12/22 01:13:40;;;;;;;1.70;1.33;;;;;;;8.84;100.00;153629.19;5073918;28;20465;-94
2020/12/22 01:16:18;;;;;;;2.20;1.67;;;;;;;8.91;100.00;153648.56;5058757;28;20433;-95
2020/12/22 01:18:54;;;;;;;2.27;1.80;;;;;;;8.87;100.00;153638.22;5057057;28;20918;-94
2020/12/22 01:21:30;;;;;;;2.03;1.77;;;;;;;8.90;100.00;153645.97;5057299;28;20450;-94
2020/12/22 01:24:06;;;;;;;2.37;1.80;;;;;;;8.89;100.00;153642.13;5073664;28;20999;-94
2020/12/22 01:26:42;;;;;;;1.60;1.33;;;;;;;8.94;100.00;153655.03;5066037;28;20445;-94
2020/12/22 01:29:17;;;;;;;2.00;1.30;;;;;;;8.97;100.00;153664.09;5058337;28;20441;-94
2020/12/22 01:31:54;;;;;;;2.00;1.47;;;;;;;8.97;100.00;153662.81;5073765;28;20437;-94
2020/12/22 01:34:30;;;;;;;1.37;1.17;;;;;;;9.02;100.00;153675.72;5057945;28;20468;-94
2020/12/22 01:37:11;;;;;;;1.50;1.10;;;;;;;9.07;100.00;153688.66;5080088;28;20465;-93
2020/12/22 01:39:46;;;;;;;1.40;1.10;;;;;;;9.07;100.00;153688.66;5071120;28;20434;-92
2020/12/22 01:42:21;;;;;;;2.43;1.17;;;;;;;9.14;100.00;153706.75;5075604;28;20426;-94
2020/12/22 01:44:57;;;;;;;2.30;1.30;;;;;;;9.09;100.00;153693.81;5066568;28;20425;-94
2020/12/22 01:47:32;;;;;;;1.23;1.10;;;;;;;9.12;100.00;153701.59;5057675;28;20434;-94
2020/12/22 01:50:08;;;;;;;1.27;0.97;;;;;;;9.12;100.00;153702.88;5056510;28;20536;-94
2020/12/22 01:52:45;;;;;;;3.13;1.23;;;;;;;9.15;100.00;153709.34;5041013;28;20434;-94
2020/12/22 01:55:20;;;;;;;1.50;1.30;;;;;;;9.14;100.00;153706.75;5056475;28;20474;-93
2020/12/22 01:57:55;;;;;;;1.10;0.77;;;;;;;9.12;100.00;153702.88;5056426;28;20445;-95
2020/12/22 02:00:31;;;;;;;1.13;0.83;;;;;;;9.17;100.00;153715.81;5056262;28;20441;-93
2020/12/22 02:03:07;;;;;;;1.07;0.70;;;;;;;9.23;100.00;153730.03;5059133;28;20460;-93
2020/12/22 02:05:42;;;;;;;1.53;1.00;;;;;;;9.22;100.00;153727.44;5056985;28;20556;-94
2020/12/22 02:08:18;;;;;;;1.30;0.60;;;;;;;9.25;100.00;153735.22;5040477;28;20430;-93
2020/12/22 02:10:53;;;;;;;0.87;0.63;;;;;;;9.24;100.00;153732.59;5025467;28;20442;-93
2020/12/22 02:13:29;;;;;;;0.70;0.50;;;;;;;9.33;100.00;153754.59;5048267;28;20441;-94
2020/12/22 02:16:04;;;;;;;0.77;0.50;;;;;;;9.30;100.00;153748.13;5044850;28;20543;-94
2020/12/22 02:18:40;;;;;;;1.53;0.70;;;;;;;9.29;100.00;153745.59;5061432;28;20429;-94
2020/12/22 02:21:17;;;;;;;1.00;0.70;;;;;;;9.36;100.00;153762.38;5044739;28;20544;-94
2020/12/22 02:23:52;;;;;;;1.67;1.03;;;;;;;9.36;100.00;153762.38;5044545;28;20433;-93
2020/12/22 02:26:28;;;;;;;0.80;0.50;;;;;;;9.33;100.00;153755.91;5044685;28;20796;-93
2020/12/22 02:29:03;;;;;;;1.10;0.80;;;;;;;9.40;100.00;153772.75;5044535;28;20438;-94
2020/12/22 02:31:39;;;;;;;1.37;0.60;;;;;;;9.48;100.00;153793.41;5033810;28;20445;-93
2020/12/22 02:34:14;;;;;;;0.70;0.47;;;;;;;9.49;100.00;153796.00;5024310;28;20462;-95
2020/12/22 02:36:50;;;;;;;0.60;0.30;;;;;;;9.50;100.00;153799.91;5036953;28;20445;-94
2020/12/22 02:39:25;;;;;;;0.73;0.60;;;;;;;9.56;100.00;153814.09;5044495;28;20524;-94
2020/12/22 02:42:00;;;;;;;0.80;0.60;;;;;;;9.56;100.00;153815.41;5043999;28;20465;-94
2020/12/22 02:44:36;;;;;;;0.60;0.47;;;;;;;9.63;100.00;153833.53;5044601;28;20430;-94
2020/12/22 02:47:13;;;;;;;5.63;0.90;;;;;;;9.60;100.00;153825.78;5045365;28;20426;-95
2020/12/22 02:49:48;;;;;;;1.00;0.40;;;;;;;9.59;100.00;153823.16;5044081;28;20836;-94
2020/12/22 02:52:25;;;;;;;0.73;0.40;;;;;;;9.62;100.00;153830.94;5044051;28;20434;-93
2020/12/22 02:55:00;;;;;;;0.90;0.53;;;;;;;9.63;100.00;153833.53;5044204;28;20972;-94
2020/12/22 02:57:36;;;;;;;0.87;0.43;;;;;;;9.66;100.00;153841.25;5043717;28;20425;-94
2020/12/22 03:00:11;;;;;;;0.90;0.50;;;;;;;9.68;100.00;153846.47;5043865;28;20521;-94
2020/12/22 03:02:47;;;;;;;0.70;0.40;;;;;;;9.68;100.00;153845.16;5043922;28;20430;-94
2020/12/22 03:05:22;;;;;;;0.80;0.40;;;;;;;9.68;100.00;153846.47;5038319;28;20474;-93
2020/12/22 03:07:58;;;;;;;0.90;0.40;;;;;;;9.77;100.00;153869.75;5039789;28;20430;-94
2020/12/22 03:10:34;;;;;;;0.70;0.40;;;;;;;9.70;100.00;153851.63;5038988;28;20447;-94
2020/12/22 03:13:09;;;;;;;0.70;0.40;;;;;;;9.68;100.00;153846.47;5056444;28;20813;-95
2020/12/22 03:15:45;;;;;;;0.67;0.40;;;;;;;9.70;100.00;153851.63;5024126;28;20474;-94
2020/12/22 03:18:20;;;;;;;1.47;0.70;;;;;;;9.72;100.00;153855.50;5023443;28;20526;-93
2020/12/22 03:20:56;;;;;;;0.70;0.40;;;;;;;9.65;100.00;153838.72;5039185;28;20455;-93
2020/12/22 03:23:32;;;;;;;0.80;0.53;;;;;;;9.71;100.00;153852.94;5039144;28;20466;-94
2020/12/22 03:26:07;;;;;;;0.80;0.43;;;;;;;9.68;100.00;153846.47;5038974;28;20545;-94
2020/12/22 03:28:42;;;;;;;1.00;0.50;;;;;;;9.67;100.00;153843.88;5039388;28;20941;-93
2020/12/22 03:31:18;;;;;;;0.60;0.40;;;;;;;9.68;100.00;153846.47;5023300;28;20811;-94
2020/12/22 03:33:53;;;;;;;1.20;0.40;;;;;;;9.77;100.00;153868.44;5023429;28;20462;-94
2020/12/22 03:36:28;;;;;;;0.70;0.40;;;;;;;9.71;100.00;153854.25;5023992;28;20824;-93
2020/12/22 03:39:04;;;;;;;0.80;0.43;;;;;;;9.70;100.00;153851.63;5039588;28;20466;-93
2020/12/22 03:41:39;;;;;;;0.60;0.30;;;;;;;9.67;100.00;153843.88;5024088;28;20478;-94
2020/12/22 03:44:14;;;;;;;4.27;0.50;;;;;;;9.73;100.00;153858.09;5034120;28;20435;-93
2020/12/22 03:46:50;;;;;;;0.77;0.40;;;;;;;9.72;100.00;153855.50;5028308;28;20450;-94
2020/12/22 03:49:25;;;;;;;0.80;0.43;;;;;;;9.72;100.00;153855.50;5043786;28;20431;-93
2020/12/22 03:52:01;;;;;;;0.67;0.30;;;;;;;9.77;100.00;153869.75;5028648;28;20438;-94
2020/12/22 03:54:37;;;;;;;0.80;0.40;;;;;;;9.68;100.00;153846.47;5040885;28;20462;-95
2020/12/22 03:57:15;;;;;;;0.80;0.40;;;;;;;9.79;100.00;153874.91;5023601;28;20557;-94
2020/12/22 03:59:50;;;;;;;0.90;0.50;;;;;;;9.87;100.00;153893.06;5038490;28;20446;-94
2020/12/22 04:02:25;;;;;;;0.50;0.30;;;;;;;9.81;100.00;153878.81;5038838;28;20438;-95
2020/12/22 04:05:01;;;;;;;0.60;0.30;;;;;;;9.75;100.00;153863.28;5041499;28;20465;-93
2020/12/22 04:07:36;;;;;;;0.60;0.33;;;;;;;9.75;100.00;153864.56;5058277;28;20437;-93
2020/12/22 04:10:12;;;;;;;3.23;0.40;;;;;;;9.79;100.00;153874.91;5058163;28;20442;-93
2020/12/22 04:12:48;;;;;;;1.30;0.33;;;;;;;9.79;100.00;153874.91;5043097;28;20438;-94
2020/12/22 04:15:23;;;;;;;0.80;0.40;;;;;;;9.80;100.00;153877.50;5058810;28;20470;-93
2020/12/22 04:17:59;;;;;;;1.33;0.40;;;;;;;9.72;100.00;153856.81;5058665;28;20429;-94
2020/12/22 04:20:34;;;;;;;0.60;0.30;;;;;;;9.74;100.00;153861.97;5043513;28;20437;-93
2020/12/22 04:23:09;;;;;;;0.60;0.30;;;;;;;9.78;100.00;153872.34;5054943;28;20433;-94
2020/12/22 04:25:46;;;;;;;0.73;0.40;;;;;;;9.75;100.00;153864.56;5069655;28;20500;-93
2020/12/22 04:28:21;;;;;;;0.70;0.47;;;;;;;9.82;100.00;153882.69;5051162;28;20430;-95
2020/12/22 04:30:57;;;;;;;0.87;0.40;;;;;;;9.82;100.00;153882.69;5042251;28;20426;-94
2020/12/22 04:33:32;;;;;;;0.70;0.40;;;;;;;9.86;100.00;153890.44;5042076;28;20778;-94
2020/12/22 04:36:08;;;;;;;0.70;0.40;;;;;;;9.90;100.00;153902.06;5058230;28;20440;-94
2020/12/22 04:38:43;;;;;;;0.80;0.50;;;;;;;9.99;100.00;153925.38;5057278;28;20512;-94
2020/12/22 04:41:20;;;;;;;3.43;0.40;;;;;;;9.96;100.00;153916.31;5057748;28;20843;-94
2020/12/22 04:43:55;;;;;;;0.60;0.40;;;;;;;9.93;100.00;153908.59;5075317;28;20418;-94
2020/12/22 04:46:32;;;;;;;0.77;0.53;;;;;;;9.91;100.00;153903.38;5041786;28;20465;-93
2020/12/22 04:49:10;;;;;;;0.60;0.30;;;;;;;9.90;100.00;153900.81;5058687;28;20422;-94
2020/12/22 04:51:49;;;;;;;0.90;0.50;;;;;;;9.95;100.00;153915.06;5041840;28;20441;-94
2020/12/22 04:54:25;;;;;;;0.57;0.30;;;;;;;9.93;100.00;153908.59;5041702;28;20458;-94
2020/12/22 04:57:03;;;;;;;0.60;0.40;;;;;;;9.92;100.00;153907.28;5056931;28;20430;-93
2020/12/22 04:59:43;;;;;;;0.60;0.40;;;;;;;9.91;100.00;153903.38;5042092;28;20450;-94
2020/12/22 05:02:19;;;;;;;0.70;0.40;;;;;;;9.92;100.00;153906.00;5042025;28;20469;-93
2020/12/22 05:04:55;;;;;;;0.63;0.30;;;;;;;9.89;100.00;153898.22;5041385;28;20501;-93
2020/12/22 05:07:30;;;;;;;0.60;0.30;;;;;;;9.97;100.00;153918.91;5041484;28;20469;-93
2020/12/22 05:10:07;;;;;;;0.70;0.37;;;;;;;9.95;100.00;153915.06;5042084;28;20437;-94
2020/12/22 05:12:44;;;;;;;0.50;0.30;;;;;;;9.97;100.00;153920.22;5057234;28;20829;-94
2020/12/22 05:15:19;;;;;;;0.60;0.30;;;;;;;9.91;100.00;153903.38;5041324;28;20473;-94
2020/12/22 05:17:59;;;;;;;0.70;0.30;;;;;;;10.03;100.00;153934.47;5041765;28;20434;-94
2020/12/22 05:20:34;;;;;;;0.50;0.30;;;;;;;10.01;100.00;153929.25;5056940;28;20438;-94
2020/12/22 05:23:13;;;;;;;0.80;0.40;;;;;;;9.98;100.00;153921.53;5041407;28;20534;-94
2020/12/22 05:25:49;;;;;;;0.93;0.67;;;;;;;10.02;100.00;153933.16;5056880;28;20434;-94
2020/12/22 05:28:27;;;;;;;0.80;0.30;;;;;;;10.02;100.00;153933.16;5041155;28;20438;-93
2020/12/22 05:31:02;;;;;;;0.60;0.30;;;;;;;10.01;100.00;153929.25;5056906;28;20445;-94
2020/12/22 05:33:42;;;;;;;0.57;0.30;;;;;;;10.02;100.00;153931.88;5057383;28;20512;-94
2020/12/22 05:36:17;;;;;;;0.60;0.40;;;;;;;10.03;100.00;153934.47;5058385;28;20525;-94
2020/12/22 05:38:53;;;;;;;0.50;0.30;;;;;;;10.09;100.00;153949.97;5045464;28;20932;-94
2020/12/22 05:41:28;;;;;;;0.60;0.40;;;;;;;10.04;100.00;153937.03;5045720;28;20437;-95
2020/12/22 05:44:05;;;;;;;0.53;0.30;;;;;;;10.10;100.00;153953.88;5060554;28;20429;-94
2020/12/22 05:46:42;;;;;;;1.00;0.40;;;;;;;10.11;100.00;153955.19;5045061;28;20434;-94
2020/12/22 05:49:17;;;;;;;0.80;0.40;;;;;;;10.14;100.00;153963.00;5045071;28;20433;-94
2020/12/22 05:51:53;;;;;;;0.60;0.40;;;;;;;10.16;100.00;153969.47;5045531;28;20430;-94
2020/12/22 05:54:28;;;;;;;0.60;0.40;;;;;;;10.18;100.00;153974.63;5060390;28;20464;-94
2020/12/22 05:57:06;;;;;;;0.50;0.20;;;;;;;10.12;100.00;153957.72;5060410;28;20421;-94
2020/12/22 05:59:42;;;;;;;0.63;0.40;;;;;;;10.14;100.00;153964.25;5045281;28;20437;-94
2020/12/22 06:02:28;;;;;;;0.70;0.40;;;;;;;10.22;100.00;153983.66;5061007;28;20457;-94
2020/12/22 06:05:04;;;;;;;0.90;0.50;;;;;;;10.22;100.00;153984.97;5044698;28;20470;-94
2020/12/22 06:07:39;;;;;;;0.70;0.40;;;;;;;10.20;100.00;153978.50;5060904;28;20439;-94
2020/12/22 06:10:17;;;;;;;0.60;0.30;;;;;;;10.21;100.00;153982.41;5045118;28;20441;-94
2020/12/22 06:12:58;;;;;;;0.60;0.30;;;;;;;10.25;100.00;153992.75;5060499;28;20437;-94
2020/12/22 06:15:35;;;;;;;0.67;0.40;;;;;;;10.29;100.00;154001.81;5059966;28;20469;-94
2020/12/22 06:18:11;;;;;;;2.10;0.40;;;;;;;10.36;100.00;154019.94;5045190;28;20438;-94
2020/12/22 06:20:47;;;;;;;0.70;0.40;;;;;;;10.37;100.00;154022.53;5044560;28;20446;-91
2020/12/22 06:23:22;;;;;;;0.90;0.47;;;;;;;10.36;100.00;154021.22;5044489;28;20437;-93
2020/12/22 06:26:03;;;;;;;1.57;0.40;;;;;;;10.32;100.00;154010.91;5044287;28;20442;-93
2020/12/22 06:28:39;;;;;;;1.10;0.50;;;;;;;10.32;100.00;154010.91;5044657;28;20437;-93
2020/12/22 06:31:23;;;;;;;2.63;0.63;;;;;;;10.35;100.00;154017.38;5059976;28;20453;-92
2020/12/22 06:33:58;;;;;;;0.60;0.30;;;;;;;10.38;100.00;154026.41;5038810;28;21001;-93
2020/12/22 06:36:57;;;;;;;0.50;0.30;;;;;;;10.35;100.00;154018.63;5049297;28;20449;-93
2020/12/22 06:39:40;;;;;;;0.77;0.50;;;;;;;10.45;100.00;154043.25;5059506;28;20442;-93
2020/12/22 06:42:44;;;;;;;0.80;0.40;;;;;;;10.43;100.00;154038.09;5046466;28;20431;-94
2020/12/22 06:45:24;;;;;;;0.70;0.50;;;;;;;10.50;100.00;154056.19;5070945;28;20438;-92
2020/12/22 06:48:01;;;;;;;1.00;0.57;;;;;;;10.49;100.00;154053.59;5043508;28;20442;-94
2020/12/22 06:50:40;;;;;;;0.80;0.37;;;;;;;10.50;100.00;154056.19;5061244;28;20449;-94
2020/12/22 06:53:35;;;;;;;0.70;0.50;;;;;;;10.51;100.00;154058.75;5045533;28;20469;-94
2020/12/22 06:56:10;;;;;;;0.80;0.43;;;;;;;10.57;100.00;154074.31;5044882;28;20474;-94
2020/12/22 06:58:47;;;;;;;1.00;0.40;;;;;;;10.57;100.00;154073.00;5062512;28;20434;-95
2020/12/22 07:01:33;;;;;;;0.57;0.30;;;;;;;10.61;100.00;154084.69;5061953;28;20520;-95
2020/12/22 07:04:24;;;;;;;0.70;0.50;;;;;;;10.63;100.00;154089.84;5045119;28;20430;-94
2020/12/22 07:07:02;;;;;;;0.60;0.30;;;;;;;10.58;100.00;154076.91;5072643;28;20450;-94
2020/12/22 07:09:40;;;;;;;0.83;0.40;;;;;;;10.66;100.00;154096.31;5079978;28;20441;-95
2020/12/22 07:12:19;;;;;;;0.60;0.30;;;;;;;10.66;100.00;154097.63;5082183;28;20422;-95
2020/12/22 07:14:59;;;;;;;0.67;0.50;;;;;;;10.60;100.00;154082.06;5067285;28;20477;-95
2020/12/22 07:17:35;;;;;;;1.03;0.80;;;;;;;10.62;100.00;154087.25;5062217;28;20433;-95
2020/12/22 07:20:12;;;;;;;0.90;0.40;;;;;;;10.71;100.00;154110.56;5044899;28;20465;-94
2020/12/22 07:22:48;;;;;;;0.70;0.47;;;;;;;10.77;100.00;154126.13;5061478;28;20430;-94
2020/12/22 07:25:26;;;;;;;0.80;0.50;;;;;;;10.72;100.00;154113.13;5045228;28;20448;-94
2020/12/22 07:28:03;;;;;;;0.97;0.47;;;;;;;10.70;100.00;154107.97;5044508;28;20434;-94
2020/12/22 07:30:39;;;;;;;0.60;0.50;;;;;;;10.78;100.00;154128.69;5062078;28;20449;-93
2020/12/22 07:33:15;;;;;;;0.77;0.50;;;;;;;10.82;100.00;154139.06;5060767;28;20441;-93
2020/12/22 07:35:52;;;;;;;0.60;0.30;;;;;;;10.80;100.00;154132.59;5043314;28;20580;-93
2020/12/22 07:38:27;;;;;;;0.73;0.40;;;;;;;10.90;100.00;154159.78;5060049;28;20524;-91
2020/12/22 07:41:02;;;;;;;0.70;0.50;;;;;;;10.87;100.00;154150.72;5042874;28;20830;-93
2020/12/22 07:43:38;;;;;;;1.17;0.33;;;;;;;10.85;100.00;154146.84;5058314;28;20908;-92
2020/12/22 07:46:21;;;;;;;1.00;0.53;;;;;;;10.86;100.00;154149.41;5022769;28;20446;-91
2020/12/22 07:48:57;;;;;;;0.87;0.40;;;;;;;10.89;100.00;154157.19;5023021;28;20785;-93
2020/12/22 07:51:34;;;;;;;1.23;0.40;;;;;;;10.96;100.00;154175.31;5038224;28;20434;-93
2020/12/22 07:54:11;;;;;;;0.60;0.30;;;;;;;10.97;100.00;154177.91;5037404;28;20465;-91
2020/12/22 07:56:46;;;;;;;1.33;0.50;;;;;;;11.02;100.00;154190.84;5042871;28;21015;-93
2020/12/22 07:59:22;;;;;;;1.63;0.27;;;;;;;10.96;100.00;154174.06;5042629;28;20465;-92
2020/12/22 08:01:58;;;;;;;0.67;0.40;;;;;;;10.98;100.00;154179.22;5042384;28;20429;-92
2020/12/22 08:04:33;;;;;;;0.90;0.70;;;;;;;11.05;100.00;154196.03;5042224;28;20426;-92
2020/12/22 08:07:09;;;;;;;0.67;0.40;;;;;;;11.06;100.00;154199.94;5058108;28;20422;-92
2020/12/22 08:09:45;;;;;;;0.50;0.30;;;;;;;11.05;100.00;154196.03;5042157;28;20964;-92
2020/12/22 08:12:20;;;;;;;0.67;0.30;;;;;;;11.07;100.00;154201.25;5042112;28;20438;-92
2020/12/22 08:14:56;;;;;;;0.67;0.33;;;;;;;11.09;100.00;154207.72;5042621;28;20805;-93
2020/12/22 08:17:34;;;;;;;1.83;0.60;;;;;;;11.10;100.00;154210.28;5042086;28;20441;-93
2020/12/22 08:20:10;;;;;;;0.60;0.30;;;;;;;11.10;100.00;154208.97;5042751;28;20469;-94
2020/12/22 08:22:46;;;;;;;0.73;0.40;;;;;;;11.17;100.00;154227.16;5042008;28;20422;-93
2020/12/22 08:25:22;;;;;;;0.60;0.30;;;;;;;11.16;100.00;154224.53;5058966;28;20440;-94
2020/12/22 08:27:58;;;;;;;0.70;0.50;;;;;;;11.13;100.00;154218.06;5042748;28;20487;-93
2020/12/22 08:30:35;;;;;;;0.87;0.40;;;;;;;11.13;100.00;154216.75;5057707;28;20846;-93
2020/12/22 08:33:18;;;;;;;0.73;0.50;;;;;;;11.19;100.00;154232.31;5057252;28;20433;-94
2020/12/22 08:35:55;;;;;;;0.90;0.50;;;;;;;11.19;100.00;154233.63;5042422;28;20573;-94
2020/12/22 08:38:31;;;;;;;0.90;0.40;;;;;;;11.21;100.00;154237.47;5058997;28;20508;-94
2020/12/22 08:41:16;;;;;;;1.50;0.50;;;;;;;11.23;100.00;154243.97;5061421;28;20457;-93
2020/12/22 08:43:52;;;;;;;0.67;0.43;;;;;;;11.26;100.00;154251.75;5060820;28;20429;-94
2020/12/22 08:46:28;;;;;;;1.40;0.50;;;;;;;11.24;100.00;154246.56;5042634;28;20442;-93
2020/12/22 08:49:08;;;;;;;0.60;0.30;;;;;;;11.20;100.00;154234.94;5059209;28;20426;-94
2020/12/22 08:51:45;;;;;;;0.60;0.30;;;;;;;11.19;100.00;154232.31;5042034;28;20446;-93
2020/12/22 08:54:25;;;;;;;1.53;0.40;;;;;;;11.25;100.00;154247.88;5042088;28;20433;-93
2020/12/22 08:57:10;;;;;;;0.60;0.30;;;;;;;11.22;100.00;154241.41;5059322;28;20900;-94
2020/12/22 08:59:46;;;;;;;0.67;0.40;;;;;;;11.25;100.00;154247.88;5042595;28;20426;-94
2020/12/22 09:02:26;;;;;;;0.60;0.40;;;;;;;11.33;100.00;154268.59;5058588;28;20479;-94
2020/12/22 09:05:13;;;;;;;0.50;0.30;;;;;;;11.40;100.00;154288.03;5041822;28;20817;-93
2020/12/22 09:07:58;;;;;;;0.90;0.40;;;;;;;11.40;100.00;154286.72;5075853;28;20477;-94
2020/12/22 09:10:34;;;;;;;0.67;0.30;;;;;;;11.43;100.00;154294.50;5072546;28;20540;-94
2020/12/22 09:13:14;;;;;;;0.60;0.40;;;;;;;11.46;100.00;154302.28;5041730;28;20445;-92
2020/12/22 09:15:54;;;;;;;0.70;0.43;;;;;;;11.52;100.00;154317.81;5042212;28;20813;-94
2020/12/22 09:18:29;;;;;;;0.97;0.53;;;;;;;11.51;100.00;154316.53;5042164;28;20438;-95
2020/12/22 09:21:07;;;;;;;0.87;0.50;;;;;;;11.44;100.00;154297.06;5041816;28;20445;-94
2020/12/22 09:23:46;;;;;;;2.53;0.90;;;;;;;11.40;100.00;154286.72;5058288;28;20438;-95
2020/12/22 09:26:23;;;;;;;0.60;0.40;;;;;;;11.40;100.00;154288.03;5042302;28;20494;-94
2020/12/22 09:28:58;;;;;;;0.90;0.50;;;;;;;11.37;100.00;154280.25;5058358;28;20430;-94
2020/12/22 09:31:34;;;;;;;0.70;0.50;;;;;;;11.39;100.00;154284.13;5041762;28;20426;-95
2020/12/22 09:34:10;;;;;;;1.17;0.60;;;;;;;11.40;100.00;154286.72;5041753;28;20441;-94
2020/12/22 09:36:51;;;;;;;1.10;0.57;;;;;;;11.36;100.00;154276.34;5059633;28;20908;-95
2020/12/22 09:39:29;;;;;;;0.80;0.40;;;;;;;11.32;100.00;154266.00;5044818;28;20928;-94
2020/12/22 09:42:05;;;;;;;0.90;0.60;;;;;;;11.34;100.00;154271.16;5059271;28;20418;-95
2020/12/22 09:44:41;;;;;;;1.27;0.50;;;;;;;11.30;100.00;154262.13;5058606;28;20790;-93
2020/12/22 09:47:17;;;;;;;1.57;0.40;;;;;;;11.34;100.00;154272.47;5045046;28;20428;-94
2020/12/22 09:49:54;;;;;;;0.70;0.50;;;;;;;11.32;100.00;154266.00;5049618;28;20464;-95
2020/12/22 09:52:31;;;;;;;0.93;0.70;;;;;;;11.36;100.00;154277.63;5058477;28;20429;-96
2020/12/22 09:55:07;;;;;;;0.90;0.70;;;;;;;11.35;100.00;154273.78;5063057;28;20466;-96
2020/12/22 09:57:44;;;;;;;1.00;0.80;;;;;;;11.34;100.00;154271.16;5062537;28;20430;-96
2020/12/22 10:00:20;;;;;;;1.13;0.70;;;;;;;11.35;100.00;154273.78;5068405;28;20437;-95
2020/12/22 10:02:57;;;;;;;0.70;0.50;;;;;;;11.37;100.00;154278.94;5058067;28;20422;-82
2020/12/22 10:05:33;;;;;;;0.87;0.50;;;;;;;11.40;100.00;154288.03;5069030;28;20546;-82
2020/12/22 10:08:08;;;;;;;0.73;0.60;;;;;;;11.42;100.00;154293.19;5055319;28;20789;-81
2020/12/22 10:10:44;;;;;;;1.07;0.40;;;;;;;11.43;100.00;154294.50;5049901;28;20442;-81
2020/12/22 10:13:20;;;;;;;1.20;0.50;;;;;;;11.46;100.00;154302.28;5078393;28;20445;-81
2020/12/22 10:15:59;;;;;;;1.30;0.60;;;;;;;11.54;100.00;154323.03;5052401;28;20515;-81
2020/12/22 10:18:35;;;;;;;1.10;0.50;;;;;;;11.54;100.00;154324.28;5069695;28;20439;-81
2020/12/22 10:21:13;;;;;;;1.10;0.60;;;;;;;11.54;100.00;154323.03;5052678;28;20441;-81
2020/12/22 10:23:49;;;;;;;0.77;0.40;;;;;;;11.62;100.00;154343.75;5066185;28;20453;-81
2020/12/22 10:26:26;;;;;;;1.67;0.50;;;;;;;11.63;100.00;154346.31;5044078;28;20433;-81
2020/12/22 10:29:03;;;;;;;1.20;0.50;;;;;;;11.68;100.00;154359.28;5080569;28;20457;-81
2020/12/22 10:31:38;;;;;;;1.17;0.60;;;;;;;11.67;100.00;154356.72;5052570;28;20769;-81
2020/12/22 10:34:35;;;;;;;1.30;0.50;;;;;;;11.70;100.00;154364.53;5049071;28;20454;-81
2020/12/22 10:37:10;;;;;;;0.67;0.30;;;;;;;11.72;100.00;154369.72;5057220;28;20469;-82
2020/12/22 10:39:52;;;;;;;0.80;0.60;;;;;;;11.81;100.00;154393.00;5058238;28;20473;-81
2020/12/22 10:42:28;;;;;;;1.13;0.60;;;;;;;11.81;100.00;154393.00;5057002;28;20454;-81
2020/12/22 10:45:04;;;;;;;0.63;0.40;;;;;;;11.78;100.00;154383.97;5039711;28;20453;-81
2020/12/22 10:47:40;;;;;;;1.00;0.50;;;;;;;11.80;100.00;154390.44;5039796;28;20451;-81
2020/12/22 10:50:18;;;;;;;1.47;0.50;;;;;;;11.83;100.00;154398.22;5039542;28;20890;-81
2020/12/22 10:52:54;;;;;;;0.87;0.57;;;;;;;11.83;100.00;154398.22;5052510;28;20446;-80
2020/12/22 10:55:29;;;;;;;0.80;0.40;;;;;;;11.85;100.00;154403.41;5038167;28;20469;-80
2020/12/22 10:58:05;;;;;;;1.20;0.50;;;;;;;11.84;100.00;154400.78;5032377;28;20438;-80
2020/12/22 11:00:41;;;;;;;0.73;0.40;;;;;;;11.91;100.00;154417.66;5081456;28;20932;-81
2020/12/22 11:03:19;;;;;;;1.03;0.57;;;;;;;11.88;100.00;154411.19;5052020;28;21024;-80
2020/12/22 11:06:11;;;;;;;1.53;0.50;;;;;;;11.88;100.00;154411.19;5067946;28;20504;-81
2020/12/22 11:08:49;;;;;;;1.00;0.50;;;;;;;11.91;100.00;154418.97;5037624;28;20474;-80
2020/12/22 11:11:25;;;;;;;1.00;0.60;;;;;;;11.92;100.00;154420.22;5040732;28;20834;-81
2020/12/22 11:14:01;;;;;;;4.27;0.47;;;;;;;11.92;100.00;154420.22;5072136;28;20462;-80
2020/12/22 11:16:37;;;;;;;0.70;0.40;;;;;;;11.96;100.00;154431.94;5056495;28;20797;-80
2020/12/22 11:19:13;;;;;;;0.70;0.50;;;;;;;11.97;100.00;154433.19;5039028;28;21132;-81
2020/12/22 11:21:49;;;;;;;0.70;0.40;;;;;;;11.94;100.00;154425.47;5072759;28;20482;-81
2020/12/22 11:24:24;;;;;;;0.77;0.40;;;;;;;11.93;100.00;154424.16;5037331;28;20500;-80
2020/12/22 11:27:00;;;;;;;0.87;0.50;;;;;;;12.01;100.00;154444.91;5064577;28;20437;-92
2020/12/22 11:29:38;;;;;;;0.70;0.40;;;;;;;11.95;100.00;154429.31;5043148;28;20477;-92
2020/12/22 11:32:17;;;;;;;1.30;0.80;;;;;;;12.02;100.00;154446.19;5070770;28;20442;-92
2020/12/22 11:34:53;;;;;;;1.07;0.63;;;;;;;12.05;100.00;154455.25;5022907;28;20909;-92
2020/12/22 11:37:29;;;;;;;0.73;0.40;;;;;;;12.01;100.00;154444.91;5043161;28;20928;-92
2020/12/22 11:40:06;;;;;;;0.60;0.40;;;;;;;12.03;100.00;154450.06;5074421;28;20854;-92
2020/12/22 11:42:41;;;;;;;4.43;0.50;;;;;;;12.10;100.00;154468.19;5043313;28;20446;-93
2020/12/22 11:45:17;;;;;;;0.90;0.50;;;;;;;12.05;100.00;154453.94;5059221;28;20430;-93
2020/12/22 11:47:53;;;;;;;0.60;0.30;;;;;;;12.09;100.00;154465.63;5043267;28;20426;-96
2020/12/22 11:50:29;;;;;;;2.00;0.70;;;;;;;12.03;100.00;154448.75;5058628;28;20457;-93
2020/12/22 11:53:05;;;;;;;0.67;0.37;;;;;;;12.06;100.00;154456.53;5059908;28;20437;-93
2020/12/22 11:55:40;;;;;;;1.67;0.50;;;;;;;11.99;100.00;154438.41;5044267;28;20465;-94
2020/12/22 11:58:16;;;;;;;0.70;0.40;;;;;;;12.03;100.00;154450.06;5058447;28;20433;-95
2020/12/22 12:00:51;;;;;;;1.10;0.60;;;;;;;12.03;100.00;154450.06;5041641;28;20525;-91
2020/12/22 12:03:27;;;;;;;0.73;0.40;;;;;;;12.05;100.00;154453.94;5042739;28;20448;-92
2020/12/22 12:06:14;;;;;;;0.90;0.50;;;;;;;12.13;100.00;154475.97;5046731;28;20550;-93